Terminal Aerodrome Forecast
Issued by NWS

Home | Current Version | Previous Version | Text Only | Print | Product List | Glossary On
Versions: 1 2 3 4 5 6 7 8 9 10 11 12 13 14 15
815
FTUS42 KMLB 101730
TAFSUA
TAF
KSUA 101730Z 1018/1118 06015G22KT P6SM BKN035
      TEMPO 1018/1022 -SHRA BKN025
     FM110000 06014G21KT P6SM BKN035
     FM110600 08012KT P6SM VCSH BKN035
     FM111400 09014G22KT P6SM VCSH BKN035=

USA.gov is the U.S. government's official web portal to all federal, state and local government web resources and services.